KLM1138 EIDW-EHAM
Flight info
| Callsign | KLM1138 |
|---|---|
| Flight time | 1h 10m |
| Altitude | 33000 |
| Route | ENDEQ1E ENDEQ Q36 EPOXI L15 KEPAD/N0447F350 L15 HON P155 SIVDA P137 REDFA |
| Aircraft | B739/M-SDE2E3FGHIRWXY/LB1 |
Departure
| Time | 2026-05-07 15:17 |
|---|---|
| Airport | Dublin Airport (EIDW) |
Arrival
| Time | 2026-05-07 16:27 |
|---|---|
| Airport | Amsterdam Airport Schiphol (EHAM) |
| Time | Latitude | Longitude | Altitude | Speed | Heading |
|---|---|---|---|---|---|
| 2026-05-07 14:53 | 53.42865 | -6.24819 | 210 ft | 0 kts | 134° |
| 2026-05-07 15:03 | 53.42868 | -6.24824 | 218 ft | 3 kts | 134° |
| 2026-05-07 15:04 | 53.42887 | -6.24856 | 213 ft | 4 kts | 134° |
| 2026-05-07 15:04 | 53.42896 | -6.24872 | 212 ft | 4 kts | 141° |
| 2026-05-07 15:04 | 53.42918 | -6.24869 | 213 ft | 4 kts | 226° |
| 2026-05-07 15:04 | 53.42930 | -6.24847 | 210 ft | 4 kts | 234° |
| 2026-05-07 15:05 | 53.42940 | -6.24808 | 212 ft | 4 kts | 265° |
| 2026-05-07 15:05 | 53.42940 | -6.24771 | 218 ft | 4 kts | 275° |
| 2026-05-07 15:05 | 53.42939 | -6.24749 | 214 ft | 0 kts | 275° |
| 2026-05-07 15:07 | 53.42939 | -6.24756 | 210 ft | 2 kts | 275° |
| 2026-05-07 15:07 | 53.42940 | -6.24810 | 218 ft | 7 kts | 268° |
| 2026-05-07 15:08 | 53.42913 | -6.24876 | 211 ft | 7 kts | 228° |
| 2026-05-07 15:08 | 53.42871 | -6.24953 | 210 ft | 12 kts | 227° |
| 2026-05-07 15:08 | 53.42806 | -6.25056 | 213 ft | 14 kts | 214° |
| 2026-05-07 15:08 | 53.42734 | -6.25162 | 214 ft | 14 kts | 225° |
| 2026-05-07 15:09 | 53.42656 | -6.25292 | 210 ft | 19 kts | 225° |
| 2026-05-07 15:09 | 53.42547 | -6.25482 | 210 ft | 23 kts | 226° |
| 2026-05-07 15:09 | 53.42437 | -6.25670 | 210 ft | 23 kts | 225° |
| 2026-05-07 15:09 | 53.42322 | -6.25866 | 211 ft | 25 kts | 225° |
| 2026-05-07 15:10 | 53.42258 | -6.26112 | 210 ft | 23 kts | 269° |
| 2026-05-07 15:10 | 53.42271 | -6.26376 | 210 ft | 22 kts | 275° |
| 2026-05-07 15:10 | 53.42284 | -6.26632 | 213 ft | 22 kts | 275° |
| 2026-05-07 15:10 | 53.42299 | -6.26881 | 210 ft | 21 kts | 275° |
| 2026-05-07 15:11 | 53.42313 | -6.27133 | 216 ft | 23 kts | 275° |
| 2026-05-07 15:11 | 53.42328 | -6.27416 | 210 ft | 26 kts | 275° |
| 2026-05-07 15:11 | 53.42343 | -6.27707 | 210 ft | 24 kts | 275° |
| 2026-05-07 15:11 | 53.42359 | -6.27978 | 211 ft | 23 kts | 275° |
| 2026-05-07 15:12 | 53.42374 | -6.28248 | 210 ft | 24 kts | 276° |
| 2026-05-07 15:12 | 53.42391 | -6.28557 | 210 ft | 29 kts | 275° |
| 2026-05-07 15:12 | 53.42411 | -6.28897 | 218 ft | 29 kts | 276° |
| 2026-05-07 15:12 | 53.42323 | -6.29071 | 211 ft | 22 kts | 173° |
| 2026-05-07 15:13 | 53.42240 | -6.28984 | 212 ft | 10 kts | 83° |
| 2026-05-07 15:13 | 53.42239 | -6.28951 | 216 ft | 0 kts | 95° |
| 2026-05-07 15:16 | 53.42239 | -6.28940 | 216 ft | 11 kts | 95° |
| 2026-05-07 15:16 | 53.42208 | -6.28376 | 220 ft | 86 kts | 95° |
| 2026-05-07 15:16 | 53.42134 | -6.27006 | 218 ft | 147 kts | 95° |
| 2026-05-07 15:16 | 53.42021 | -6.25208 | 693 ft | 153 kts | 98° |
| 2026-05-07 15:17 | 53.41929 | -6.23392 | 1224 ft | 169 kts | 101° |
| 2026-05-07 15:17 | 53.41813 | -6.21348 | 1764 ft | 177 kts | 99° |
| 2026-05-07 15:17 | 53.41710 | -6.19265 | 2375 ft | 187 kts | 99° |
| 2026-05-07 15:17 | 53.41586 | -6.16950 | 2703 ft | 212 kts | 100° |
| 2026-05-07 15:18 | 53.41432 | -6.14331 | 3024 ft | 236 kts | 99° |
| 2026-05-07 15:18 | 53.41282 | -6.11484 | 3461 ft | 257 kts | 98° |
| 2026-05-07 15:18 | 53.41109 | -6.08430 | 4116 ft | 268 kts | 99° |
| 2026-05-07 15:18 | 53.40931 | -6.05314 | 5098 ft | 268 kts | 98° |
| 2026-05-07 15:19 | 53.40945 | -6.02139 | 5924 ft | 278 kts | 87° |
| 2026-05-07 15:19 | 53.41182 | -5.98905 | 6783 ft | 282 kts | 85° |
| 2026-05-07 15:19 | 53.41455 | -5.95641 | 7629 ft | 285 kts | 85° |
| 2026-05-07 15:19 | 53.41717 | -5.92316 | 8401 ft | 290 kts | 85° |
| 2026-05-07 15:20 | 53.41963 | -5.88929 | 9043 ft | 295 kts | 86° |
| 2026-05-07 15:20 | 53.42199 | -5.85503 | 9929 ft | 297 kts | 86° |
| 2026-05-07 15:20 | 53.42434 | -5.82005 | 10368 ft | 314 kts | 86° |
| 2026-05-07 15:20 | 53.42681 | -5.78336 | 11069 ft | 319 kts | 86° |
| 2026-05-07 15:21 | 53.42937 | -5.74569 | 11330 ft | 341 kts | 86° |
| 2026-05-07 15:21 | 53.43216 | -5.70475 | 11832 ft | 353 kts | 86° |
| 2026-05-07 15:21 | 53.43496 | -5.66380 | 12618 ft | 356 kts | 86° |
| 2026-05-07 15:21 | 53.43780 | -5.62229 | 13409 ft | 359 kts | 86° |
| 2026-05-07 15:22 | 53.44063 | -5.58053 | 14113 ft | 363 kts | 86° |
| 2026-05-07 15:22 | 53.44346 | -5.53813 | 14767 ft | 368 kts | 86° |
| 2026-05-07 15:22 | 53.44618 | -5.49527 | 15428 ft | 371 kts | 88° |
| 2026-05-07 15:22 | 53.44648 | -5.45136 | 15813 ft | 382 kts | 94° |
| 2026-05-07 15:23 | 53.44494 | -5.40644 | 16319 ft | 389 kts | 96° |
| 2026-05-07 15:23 | 53.44307 | -5.36160 | 16958 ft | 392 kts | 96° |
| 2026-05-07 15:23 | 53.44133 | -5.31577 | 17618 ft | 395 kts | 95° |
| 2026-05-07 15:23 | 53.43984 | -5.26948 | 18243 ft | 400 kts | 95° |
| 2026-05-07 15:24 | 53.43851 | -5.22269 | 18779 ft | 404 kts | 95° |
| 2026-05-07 15:24 | 53.43720 | -5.17549 | 19336 ft | 407 kts | 95° |
| 2026-05-07 15:24 | 53.43587 | -5.12795 | 19897 ft | 410 kts | 95° |
| 2026-05-07 15:24 | 53.43450 | -5.08004 | 20449 ft | 413 kts | 95° |
| 2026-05-07 15:25 | 53.43310 | -5.03176 | 20998 ft | 416 kts | 95° |
| 2026-05-07 15:25 | 53.43167 | -4.98310 | 21544 ft | 419 kts | 95° |
| 2026-05-07 15:25 | 53.43022 | -4.93418 | 22077 ft | 423 kts | 95° |
| 2026-05-07 15:25 | 53.42873 | -4.88478 | 22606 ft | 426 kts | 95° |
| 2026-05-07 15:26 | 53.42717 | -4.83501 | 23127 ft | 429 kts | 95° |
| 2026-05-07 15:26 | 53.42550 | -4.78488 | 23631 ft | 432 kts | 95° |
| 2026-05-07 15:26 | 53.42375 | -4.73443 | 24085 ft | 434 kts | 95° |
| 2026-05-07 15:26 | 53.42197 | -4.68379 | 24581 ft | 435 kts | 95° |
| 2026-05-07 15:27 | 53.42017 | -4.63310 | 25065 ft | 436 kts | 96° |
| 2026-05-07 15:27 | 53.41835 | -4.58230 | 25518 ft | 438 kts | 96° |
| 2026-05-07 15:27 | 53.41651 | -4.53114 | 25947 ft | 440 kts | 96° |
| 2026-05-07 15:27 | 53.41465 | -4.47993 | 26397 ft | 442 kts | 96° |
| 2026-05-07 15:28 | 53.41276 | -4.42844 | 26848 ft | 443 kts | 96° |
| 2026-05-07 15:28 | 53.41083 | -4.37676 | 27291 ft | 445 kts | 96° |
| 2026-05-07 15:28 | 53.40889 | -4.32488 | 27714 ft | 447 kts | 96° |
| 2026-05-07 15:28 | 53.40691 | -4.27281 | 28141 ft | 448 kts | 96° |
| 2026-05-07 15:29 | 53.40490 | -4.22054 | 28538 ft | 450 kts | 96° |
| 2026-05-07 15:29 | 53.40286 | -4.16807 | 28931 ft | 452 kts | 96° |
| 2026-05-07 15:29 | 53.40079 | -4.11538 | 29320 ft | 454 kts | 96° |
| 2026-05-07 15:29 | 53.39869 | -4.06252 | 29700 ft | 455 kts | 96° |
| 2026-05-07 15:30 | 53.39657 | -4.00955 | 30120 ft | 455 kts | 96° |
| 2026-05-07 15:30 | 53.39444 | -3.95679 | 30602 ft | 452 kts | 96° |
| 2026-05-07 15:30 | 53.39237 | -3.90436 | 31079 ft | 450 kts | 96° |
| 2026-05-07 15:30 | 53.39033 | -3.85219 | 31505 ft | 448 kts | 96° |
| 2026-05-07 15:31 | 53.38829 | -3.80014 | 31891 ft | 447 kts | 96° |
| 2026-05-07 15:31 | 53.38622 | -3.74823 | 32293 ft | 446 kts | 97° |
| 2026-05-07 15:31 | 53.38412 | -3.69651 | 32717 ft | 444 kts | 97° |
| 2026-05-07 15:31 | 53.37970 | -3.64576 | 33095 ft | 440 kts | 106° |
| 2026-05-07 15:32 | 53.37078 | -3.59711 | 33460 ft | 435 kts | 115° |
| 2026-05-07 15:32 | 53.35849 | -3.55097 | 33853 ft | 433 kts | 117° |
| 2026-05-07 15:32 | 53.34613 | -3.50506 | 34161 ft | 433 kts | 116° |
| 2026-05-07 15:32 | 53.33251 | -3.46019 | 34376 ft | 432 kts | 123° |
| 2026-05-07 15:33 | 53.31529 | -3.41909 | 34556 ft | 432 kts | 132° |
| 2026-05-07 15:33 | 53.29541 | -3.38157 | 34793 ft | 432 kts | 134° |
| 2026-05-07 15:33 | 53.27523 | -3.34434 | 34999 ft | 433 kts | 134° |
| 2026-05-07 15:33 | 53.25503 | -3.30694 | 35203 ft | 434 kts | 133° |
| 2026-05-07 15:34 | 53.23519 | -3.26978 | 35421 ft | 435 kts | 133° |
| 2026-05-07 15:34 | 53.21513 | -3.23196 | 35636 ft | 436 kts | 133° |
| 2026-05-07 15:34 | 53.19502 | -3.19403 | 35819 ft | 437 kts | 133° |
| 2026-05-07 15:34 | 53.17485 | -3.15603 | 36023 ft | 438 kts | 133° |
| 2026-05-07 15:35 | 53.15460 | -3.11802 | 36215 ft | 439 kts | 133° |
| 2026-05-07 15:35 | 53.13431 | -3.07998 | 36405 ft | 440 kts | 133° |
| 2026-05-07 15:35 | 53.11401 | -3.04196 | 36572 ft | 441 kts | 133° |
| 2026-05-07 15:35 | 53.09360 | -3.00379 | 36762 ft | 442 kts | 133° |
| 2026-05-07 15:36 | 53.07315 | -2.96558 | 36956 ft | 442 kts | 133° |
| 2026-05-07 15:36 | 53.05266 | -2.92735 | 36990 ft | 446 kts | 133° |
| 2026-05-07 15:36 | 53.01134 | -2.85051 | 36994 ft | 444 kts | 133° |
| 2026-05-07 15:37 | 52.97032 | -2.77441 | 37014 ft | 441 kts | 133° |
| 2026-05-07 15:37 | 52.92945 | -2.69880 | 37018 ft | 439 kts | 133° |
| 2026-05-07 15:38 | 52.88864 | -2.62351 | 37021 ft | 439 kts | 134° |
| 2026-05-07 15:38 | 52.84779 | -2.54834 | 37021 ft | 439 kts | 134° |
| 2026-05-07 15:39 | 52.80705 | -2.47364 | 37029 ft | 441 kts | 134° |
| 2026-05-07 15:39 | 52.76549 | -2.39781 | 37020 ft | 444 kts | 134° |
| 2026-05-07 15:40 | 52.72392 | -2.32221 | 37027 ft | 446 kts | 134° |
| 2026-05-07 15:40 | 52.68214 | -2.24639 | 37025 ft | 447 kts | 134° |
| 2026-05-07 15:41 | 52.64017 | -2.17045 | 37031 ft | 449 kts | 134° |
| 2026-05-07 15:41 | 52.59808 | -2.09454 | 37033 ft | 450 kts | 134° |
| 2026-05-07 15:42 | 52.55583 | -2.01855 | 37031 ft | 450 kts | 134° |
| 2026-05-07 15:42 | 52.51386 | -1.94329 | 37022 ft | 450 kts | 134° |
| 2026-05-07 15:43 | 52.47153 | -1.86763 | 37020 ft | 449 kts | 134° |
| 2026-05-07 15:43 | 52.42925 | -1.79224 | 37019 ft | 449 kts | 134° |
| 2026-05-07 15:44 | 52.38700 | -1.71692 | 37019 ft | 449 kts | 131° |
| 2026-05-07 15:44 | 52.36977 | -1.67433 | 37017 ft | 452 kts | 116° |
| 2026-05-07 15:44 | 52.35916 | -1.62594 | 37020 ft | 454 kts | 104° |
| 2026-05-07 15:45 | 52.35565 | -1.57457 | 37031 ft | 456 kts | 91° |
| 2026-05-07 15:45 | 52.35643 | -1.52268 | 37032 ft | 457 kts | 89° |
| 2026-05-07 15:45 | 52.35803 | -1.41875 | 37066 ft | 457 kts | 91° |
| 2026-05-07 15:46 | 52.35851 | -1.26274 | 37066 ft | 458 kts | 91° |
| 2026-05-07 15:47 | 52.35877 | -1.15858 | 37064 ft | 458 kts | 91° |
| 2026-05-07 15:47 | 52.35898 | -1.05430 | 37058 ft | 458 kts | 91° |
| 2026-05-07 15:48 | 52.35910 | -0.95002 | 37051 ft | 459 kts | 91° |
| 2026-05-07 15:48 | 52.35912 | -0.84562 | 37041 ft | 459 kts | 91° |
| 2026-05-07 15:49 | 52.35907 | -0.74122 | 37038 ft | 459 kts | 91° |
| 2026-05-07 15:49 | 52.35894 | -0.63681 | 37041 ft | 459 kts | 91° |
| 2026-05-07 15:50 | 52.35883 | -0.53255 | 37042 ft | 459 kts | 91° |
| 2026-05-07 15:50 | 52.35863 | -0.42818 | 37041 ft | 458 kts | 91° |
| 2026-05-07 15:51 | 52.35834 | -0.32399 | 37045 ft | 458 kts | 92° |
| 2026-05-07 15:51 | 52.35803 | -0.23737 | 37045 ft | 458 kts | 92° |
| 2026-05-07 15:52 | 52.35735 | -0.13329 | 37053 ft | 458 kts | 92° |
| 2026-05-07 15:52 | 52.35650 | -0.02927 | 37068 ft | 457 kts | 92° |
| 2026-05-07 15:53 | 52.35344 | 0.07443 | 37073 ft | 455 kts | 98° |
| 2026-05-07 15:53 | 52.34432 | 0.17687 | 37071 ft | 455 kts | 101° |
| 2026-05-07 15:54 | 52.33439 | 0.27904 | 37063 ft | 455 kts | 100° |
| 2026-05-07 15:54 | 52.32481 | 0.38129 | 37067 ft | 455 kts | 100° |
| 2026-05-07 15:55 | 52.31545 | 0.48366 | 37062 ft | 456 kts | 100° |
| 2026-05-07 15:55 | 52.30610 | 0.58600 | 37067 ft | 456 kts | 100° |
| 2026-05-07 15:56 | 52.29663 | 0.68851 | 37068 ft | 456 kts | 100° |
| 2026-05-07 15:56 | 52.28707 | 0.79101 | 37074 ft | 456 kts | 100° |
| 2026-05-07 15:57 | 52.27740 | 0.89352 | 37074 ft | 457 kts | 100° |
| 2026-05-07 15:57 | 52.26763 | 0.99603 | 37075 ft | 457 kts | 100° |
| 2026-05-07 15:58 | 52.25778 | 1.09847 | 37074 ft | 457 kts | 100° |
| 2026-05-07 15:58 | 52.24784 | 1.20097 | 37075 ft | 457 kts | 100° |
| 2026-05-07 15:59 | 52.23780 | 1.30347 | 37078 ft | 458 kts | 100° |
| 2026-05-07 15:59 | 52.22772 | 1.40548 | 37049 ft | 447 kts | 101° |
| 2026-05-07 15:59 | 52.22283 | 1.45475 | 36948 ft | 433 kts | 101° |
| 2026-05-07 16:00 | 52.21805 | 1.50264 | 36716 ft | 423 kts | 101° |
| 2026-05-07 16:00 | 52.21330 | 1.54999 | 35972 ft | 426 kts | 101° |
| 2026-05-07 16:00 | 52.20842 | 1.59818 | 35025 ft | 435 kts | 101° |
| 2026-05-07 16:00 | 52.20344 | 1.64717 | 34161 ft | 441 kts | 101° |
| 2026-05-07 16:01 | 52.19839 | 1.69670 | 33236 ft | 444 kts | 101° |
| 2026-05-07 16:01 | 52.19332 | 1.74634 | 32542 ft | 443 kts | 101° |
| 2026-05-07 16:01 | 52.18828 | 1.79549 | 32025 ft | 437 kts | 101° |
| 2026-05-07 16:01 | 52.18329 | 1.84397 | 31522 ft | 431 kts | 101° |
| 2026-05-07 16:02 | 52.17834 | 1.89190 | 30981 ft | 427 kts | 101° |
| 2026-05-07 16:02 | 52.17343 | 1.93924 | 30400 ft | 419 kts | 101° |
| 2026-05-07 16:02 | 52.16859 | 1.98569 | 29537 ft | 414 kts | 101° |
| 2026-05-07 16:02 | 52.16376 | 2.03182 | 28562 ft | 411 kts | 101° |
| 2026-05-07 16:03 | 52.15896 | 2.07751 | 27800 ft | 405 kts | 101° |
| 2026-05-07 16:03 | 52.15430 | 2.12167 | 27276 ft | 399 kts | 101° |
| 2026-05-07 16:03 | 52.14960 | 2.16609 | 26742 ft | 397 kts | 101° |
| 2026-05-07 16:03 | 52.14491 | 2.21021 | 26231 ft | 394 kts | 101° |
| 2026-05-07 16:04 | 52.14023 | 2.25403 | 25727 ft | 392 kts | 101° |
| 2026-05-07 16:04 | 52.13557 | 2.29757 | 25238 ft | 389 kts | 101° |
| 2026-05-07 16:04 | 52.13093 | 2.34087 | 24747 ft | 387 kts | 101° |
| 2026-05-07 16:04 | 52.12630 | 2.38385 | 24262 ft | 386 kts | 101° |
| 2026-05-07 16:05 | 52.12165 | 2.42683 | 23782 ft | 384 kts | 101° |
| 2026-05-07 16:05 | 52.11869 | 2.46978 | 23208 ft | 384 kts | 87° |
| 2026-05-07 16:05 | 52.12394 | 2.51190 | 22826 ft | 378 kts | 68° |
| 2026-05-07 16:05 | 52.13587 | 2.54971 | 22505 ft | 375 kts | 60° |
| 2026-05-07 16:06 | 52.14927 | 2.58658 | 22165 ft | 382 kts | 58° |
| 2026-05-07 16:06 | 52.16313 | 2.62374 | 21817 ft | 386 kts | 58° |
| 2026-05-07 16:06 | 52.17703 | 2.66107 | 21467 ft | 384 kts | 58° |
| 2026-05-07 16:06 | 52.19076 | 2.69828 | 21119 ft | 382 kts | 59° |
| 2026-05-07 16:07 | 52.20430 | 2.73533 | 20777 ft | 380 kts | 59° |
| 2026-05-07 16:07 | 52.21770 | 2.77233 | 20453 ft | 378 kts | 59° |
| 2026-05-07 16:07 | 52.23097 | 2.80916 | 20126 ft | 376 kts | 59° |
| 2026-05-07 16:07 | 52.24415 | 2.84585 | 19795 ft | 374 kts | 59° |
| 2026-05-07 16:08 | 52.25725 | 2.88241 | 19461 ft | 372 kts | 59° |
| 2026-05-07 16:08 | 52.27027 | 2.91885 | 19140 ft | 371 kts | 59° |
| 2026-05-07 16:08 | 52.28325 | 2.95518 | 18810 ft | 370 kts | 59° |
| 2026-05-07 16:08 | 52.29616 | 2.99141 | 18489 ft | 368 kts | 59° |
| 2026-05-07 16:09 | 52.30900 | 3.02747 | 18134 ft | 367 kts | 59° |
| 2026-05-07 16:09 | 52.32183 | 3.06357 | 17774 ft | 366 kts | 59° |
| 2026-05-07 16:09 | 52.33457 | 3.09945 | 17431 ft | 365 kts | 59° |
| 2026-05-07 16:09 | 52.34731 | 3.13538 | 17116 ft | 364 kts | 59° |
| 2026-05-07 16:10 | 52.35997 | 3.17114 | 16790 ft | 362 kts | 59° |
| 2026-05-07 16:10 | 52.37253 | 3.20668 | 16473 ft | 360 kts | 59° |
| 2026-05-07 16:10 | 52.38500 | 3.24202 | 16153 ft | 358 kts | 60° |
| 2026-05-07 16:10 | 52.39741 | 3.27722 | 15843 ft | 356 kts | 60° |
| 2026-05-07 16:11 | 52.40970 | 3.31212 | 15523 ft | 353 kts | 60° |
| 2026-05-07 16:11 | 52.42194 | 3.34693 | 15217 ft | 350 kts | 60° |
| 2026-05-07 16:11 | 52.43401 | 3.38129 | 14907 ft | 347 kts | 60° |
| 2026-05-07 16:11 | 52.44585 | 3.41548 | 14604 ft | 343 kts | 63° |
| 2026-05-07 16:12 | 52.45355 | 3.45218 | 14306 ft | 339 kts | 77° |
| 2026-05-07 16:12 | 52.45881 | 3.48969 | 14014 ft | 336 kts | 77° |
| 2026-05-07 16:12 | 52.46384 | 3.52700 | 13699 ft | 334 kts | 78° |
| 2026-05-07 16:12 | 52.46888 | 3.56406 | 13373 ft | 332 kts | 77° |
| 2026-05-07 16:13 | 52.47396 | 3.60082 | 13063 ft | 329 kts | 77° |
| 2026-05-07 16:13 | 52.47906 | 3.63733 | 12770 ft | 327 kts | 77° |
| 2026-05-07 16:13 | 52.48418 | 3.67366 | 12485 ft | 327 kts | 77° |
| 2026-05-07 16:13 | 52.48924 | 3.70945 | 12200 ft | 326 kts | 77° |
| 2026-05-07 16:14 | 52.49436 | 3.74565 | 11911 ft | 326 kts | 77° |
| 2026-05-07 16:14 | 52.49948 | 3.78190 | 11625 ft | 327 kts | 77° |
| 2026-05-07 16:14 | 52.50461 | 3.81826 | 11335 ft | 327 kts | 77° |
| 2026-05-07 16:14 | 52.50981 | 3.85512 | 11041 ft | 327 kts | 77° |
| 2026-05-07 16:15 | 52.51490 | 3.89134 | 10744 ft | 323 kts | 77° |
| 2026-05-07 16:15 | 52.51987 | 3.92685 | 10469 ft | 317 kts | 77° |
| 2026-05-07 16:15 | 52.52322 | 3.96214 | 10175 ft | 311 kts | 92° |
| 2026-05-07 16:15 | 52.51906 | 3.99611 | 10065 ft | 297 kts | 110° |
| 2026-05-07 16:16 | 52.51175 | 4.02687 | 10034 ft | 283 kts | 112° |
| 2026-05-07 16:16 | 52.50417 | 4.05721 | 9476 ft | 288 kts | 113° |
| 2026-05-07 16:16 | 52.49667 | 4.08712 | 9126 ft | 286 kts | 113° |
| 2026-05-07 16:16 | 52.48922 | 4.11698 | 8852 ft | 281 kts | 113° |
| 2026-05-07 16:17 | 52.48193 | 4.14644 | 8600 ft | 276 kts | 112° |
| 2026-05-07 16:17 | 52.47480 | 4.17534 | 8354 ft | 271 kts | 112° |
| 2026-05-07 16:17 | 52.46782 | 4.20373 | 8114 ft | 266 kts | 112° |
| 2026-05-07 16:17 | 52.46093 | 4.23175 | 7881 ft | 264 kts | 112° |
| 2026-05-07 16:18 | 52.45408 | 4.25964 | 7654 ft | 264 kts | 112° |
| 2026-05-07 16:18 | 52.44755 | 4.28614 | 7438 ft | 263 kts | 112° |
| 2026-05-07 16:18 | 52.44070 | 4.31393 | 7204 ft | 262 kts | 113° |
| 2026-05-07 16:18 | 52.43388 | 4.34156 | 6965 ft | 261 kts | 112° |
| 2026-05-07 16:19 | 52.42472 | 4.36686 | 6712 ft | 259 kts | 136° |
| 2026-05-07 16:19 | 52.40950 | 4.38186 | 6498 ft | 256 kts | 163° |
| 2026-05-07 16:19 | 52.39191 | 4.38512 | 6270 ft | 255 kts | 181° |
| 2026-05-07 16:19 | 52.37421 | 4.38321 | 6025 ft | 255 kts | 184° |
| 2026-05-07 16:20 | 52.35656 | 4.38043 | 5784 ft | 254 kts | 185° |
| 2026-05-07 16:20 | 52.33899 | 4.37773 | 5556 ft | 254 kts | 184° |
| 2026-05-07 16:20 | 52.32138 | 4.37524 | 5328 ft | 254 kts | 184° |
| 2026-05-07 16:20 | 52.30379 | 4.37290 | 5100 ft | 254 kts | 183° |
| 2026-05-07 16:21 | 52.28619 | 4.37064 | 4874 ft | 254 kts | 183° |
| 2026-05-07 16:21 | 52.26866 | 4.36840 | 4641 ft | 251 kts | 183° |
| 2026-05-07 16:21 | 52.25140 | 4.36792 | 4375 ft | 246 kts | 167° |
| 2026-05-07 16:21 | 52.23646 | 4.37963 | 4139 ft | 237 kts | 136° |
| 2026-05-07 16:22 | 52.22654 | 4.40033 | 3949 ft | 229 kts | 116° |
| 2026-05-07 16:22 | 52.21958 | 4.42345 | 3731 ft | 225 kts | 112° |
| 2026-05-07 16:22 | 52.21308 | 4.44656 | 3526 ft | 223 kts | 112° |
| 2026-05-07 16:22 | 52.20868 | 4.46993 | 3334 ft | 211 kts | 92° |
| 2026-05-07 16:23 | 52.20828 | 4.49320 | 3151 ft | 200 kts | 89° |
| 2026-05-07 16:23 | 52.20799 | 4.51497 | 2986 ft | 188 kts | 88° |
| 2026-05-07 16:23 | 52.21121 | 4.53453 | 2723 ft | 174 kts | 53° |
| 2026-05-07 16:23 | 52.21794 | 4.55017 | 2596 ft | 167 kts | 59° |
| 2026-05-07 16:24 | 52.22374 | 4.56625 | 2438 ft | 163 kts | 58° |
| 2026-05-07 16:24 | 52.22964 | 4.58191 | 2194 ft | 158 kts | 57° |
| 2026-05-07 16:24 | 52.23536 | 4.59705 | 1993 ft | 159 kts | 57° |
| 2026-05-07 16:24 | 52.24109 | 4.61204 | 1806 ft | 156 kts | 57° |
| 2026-05-07 16:25 | 52.24678 | 4.62694 | 1566 ft | 154 kts | 57° |
| 2026-05-07 16:25 | 52.25240 | 4.64165 | 1393 ft | 151 kts | 56° |
| 2026-05-07 16:25 | 52.25767 | 4.65534 | 1196 ft | 138 kts | 57° |
| 2026-05-07 16:25 | 52.26281 | 4.66875 | 1037 ft | 144 kts | 56° |
| 2026-05-07 16:26 | 52.26819 | 4.68272 | 788 ft | 144 kts | 56° |
| 2026-05-07 16:26 | 52.27353 | 4.69658 | 608 ft | 147 kts | 57° |
| 2026-05-07 16:26 | 52.27889 | 4.71050 | 393 ft | 142 kts | 57° |
| 2026-05-07 16:26 | 52.28242 | 4.71968 | 265 ft | 141 kts | 58° |
| 2026-05-07 16:27 | 52.28923 | 4.73753 | 25 ft | 137 kts | 57° |
| 2026-05-07 16:27 | 52.29390 | 4.74969 | -3 ft | 113 kts | 58° |
| 2026-05-07 16:27 | 52.29731 | 4.75860 | -3 ft | 70 kts | 58° |
| 2026-05-07 16:27 | 52.29915 | 4.76339 | -5 ft | 39 kts | 57° |
| 2026-05-07 16:28 | 52.30099 | 4.76601 | -2 ft | 28 kts | 27° |
| 2026-05-07 16:28 | 52.30193 | 4.76681 | -2 ft | 14 kts | 27° |
| 2026-05-07 16:28 | 52.30276 | 4.76754 | -2 ft | 13 kts | 33° |
| 2026-05-07 16:28 | 52.30332 | 4.76871 | -2 ft | 13 kts | 57° |
| 2026-05-07 16:29 | 52.30380 | 4.76995 | -2 ft | 13 kts | 58° |
| 2026-05-07 16:29 | 52.30428 | 4.77122 | -2 ft | 13 kts | 58° |
| 2026-05-07 16:29 | 52.30477 | 4.77254 | -2 ft | 15 kts | 57° |
| 2026-05-07 16:29 | 52.30536 | 4.77405 | -2 ft | 16 kts | 57° |
| 2026-05-07 16:30 | 52.30598 | 4.77548 | -2 ft | 15 kts | 43° |
| 2026-05-07 16:30 | 52.30698 | 4.77590 | -2 ft | 16 kts | 3° |
| 2026-05-07 16:30 | 52.30815 | 4.77601 | -2 ft | 18 kts | 5° |
| 2026-05-07 16:30 | 52.30947 | 4.77614 | -2 ft | 20 kts | 2° |
| 2026-05-07 16:31 | 52.31050 | 4.77496 | -2 ft | 20 kts | 298° |
| 2026-05-07 16:31 | 52.31073 | 4.77282 | -2 ft | 19 kts | 270° |
| 2026-05-07 16:31 | 52.31068 | 4.77124 | -2 ft | 5 kts | 227° |
| 2026-05-07 16:31 | 52.31060 | 4.77123 | -2 ft | 3 kts | 184° |
| 2026-05-07 16:32 | 52.31028 | 4.77120 | -2 ft | 5 kts | 183° |
| 2026-05-07 16:32 | 52.31007 | 4.77118 | -2 ft | 2 kts | 183° |
| 2026-05-07 16:32 | 52.31003 | 4.77118 | -2 ft | 0 kts | 183° |